createdAt,value
2018-06-25T00:00:07.445Z,0
2018-06-25T00:01:07.720Z,0
2018-06-25T00:02:08.116Z,0
2018-06-25T00:03:08.029Z,0
2018-06-25T00:04:07.779Z,0
2018-06-25T00:05:07.264Z,0
2018-06-25T00:06:07.833Z,0
2018-06-25T00:07:07.571Z,0
2018-06-25T00:08:07.886Z,0
2018-06-25T00:09:07.883Z,0
2018-06-25T00:10:07.912Z,0
2018-06-25T00:11:07.916Z,0
2018-06-25T00:12:07.970Z,0
2018-06-25T00:13:07.956Z,0
2018-06-25T00:14:07.999Z,0
2018-06-25T00:15:08.270Z,0
2018-06-25T00:16:08.025Z,0
2018-06-25T00:17:08.322Z,0
2018-06-25T00:18:07.789Z,0
2018-06-25T00:19:07.809Z,0
2018-06-25T00:20:07.845Z,0
2018-06-25T00:21:07.848Z,0
2018-06-25T00:22:08.147Z,0
2018-06-25T00:23:07.618Z,0
2018-06-25T00:24:08.178Z,0
2018-06-25T00:25:08.462Z,0
2018-06-25T00:26:07.949Z,0
2018-06-25T00:27:08.249Z,0
2018-06-25T00:28:07.992Z,0
2018-06-25T00:29:08.013Z,0
2018-06-25T00:30:08.570Z,0
2018-06-25T00:31:08.310Z,0
2018-06-25T00:32:08.349Z,0
2018-06-25T00:33:08.082Z,0
2018-06-25T00:34:08.112Z,0
2018-06-25T00:35:08.129Z,0
2018-06-25T00:36:08.149Z,0
2018-06-25T00:37:08.699Z,0
2018-06-25T00:38:08.449Z,0
2018-06-25T00:39:08.733Z,0
2018-06-25T00:40:08.766Z,0
2018-06-25T00:41:08.769Z,0
2018-06-25T00:42:08.009Z,0
2018-06-25T00:43:08.547Z,0
2018-06-25T00:44:08.564Z,0
2018-06-25T00:45:08.603Z,0
2018-06-25T00:46:08.609Z,0
2018-06-25T00:47:08.630Z,0
2018-06-25T00:48:08.914Z,0
2018-06-25T00:49:08.394Z,0
2018-06-25T00:50:08.947Z,0
2018-06-25T00:51:08.699Z,0
2018-06-25T00:52:08.449Z,0
2018-06-25T00:53:08.736Z,0
2018-06-25T00:54:09.030Z,0
2018-06-25T00:55:08.776Z,0
2018-06-25T00:56:08.798Z,0
2018-06-25T00:57:09.091Z,0
2018-06-25T00:58:08.839Z,0
2018-06-25T00:59:08.595Z,0
2018-06-25T01:00:08.876Z,0
2018-06-25T01:01:08.898Z,0
2018-06-25T01:02:08.648Z,0
2018-06-25T01:03:08.940Z,0
2018-06-25T01:04:08.685Z,0
2018-06-25T01:05:08.707Z,0
2018-06-25T01:06:09.740Z,0
2018-06-25T01:07:09.021Z,0
2018-06-25T01:08:09.033Z,0
2018-06-25T01:09:08.783Z,0
2018-06-25T01:10:09.077Z,0
2018-06-25T01:11:09.363Z,0
2018-06-25T01:12:09.113Z,0
2018-06-25T01:13:09.128Z,0
2018-06-25T01:14:09.424Z,0
2018-06-25T01:15:09.447Z,0
2018-06-25T01:16:09.190Z,0
2018-06-25T01:17:09.477Z,0
2018-06-25T01:18:09.499Z,0
2018-06-25T01:19:09.248Z,0
2018-06-25T01:20:09.266Z,0
2018-06-25T01:21:09.285Z,0
2018-06-25T01:22:09.578Z,0
2018-06-25T01:23:09.329Z,0
2018-06-25T01:24:09.626Z,0
2018-06-25T01:25:09.097Z,0
2018-06-25T01:26:09.711Z,0
2018-06-25T01:27:08.870Z,0
2018-06-25T01:28:09.424Z,0
2018-06-25T01:29:09.448Z,0
2018-06-25T01:30:09.730Z,0
2018-06-25T01:31:09.482Z,0
2018-06-25T01:32:09.525Z,0
2018-06-25T01:33:09.785Z,0
2018-06-25T01:34:09.812Z,0
2018-06-25T01:35:09.562Z,0
2018-06-25T01:36:09.580Z,0
2018-06-25T01:37:09.875Z,0
2018-06-25T01:38:09.618Z,0
2018-06-25T01:39:09.386Z,0
2018-06-25T01:40:09.669Z,0
2018-06-25T01:41:09.678Z,0
2018-06-25T01:42:09.710Z,0
2018-06-25T01:43:09.986Z,0
2018-06-25T01:44:10.004Z,0
2018-06-25T01:45:09.493Z,0
2018-06-25T01:46:09.563Z,0
2018-06-25T01:47:10.075Z,0
2018-06-25T01:48:09.552Z,0
2018-06-25T01:49:10.103Z,0
2018-06-25T01:50:09.853Z,0
2018-06-25T01:51:09.611Z,0
2018-06-25T01:52:09.630Z,0
2018-06-25T01:53:09.932Z,0
2018-06-25T01:54:10.227Z,0
2018-06-25T01:55:09.692Z,0
2018-06-25T01:56:09.709Z,0
2018-06-25T01:57:10.266Z,0
2018-06-25T01:58:10.014Z,0
2018-06-25T01:59:10.033Z,0
2018-06-25T02:00:09.513Z,0
2018-06-25T02:01:10.338Z,0
2018-06-25T02:02:10.353Z,0
2018-06-25T02:03:10.106Z,0
2018-06-25T02:04:10.396Z,0
2018-06-25T02:05:10.416Z,0
2018-06-25T02:06:10.172Z,0
2018-06-25T02:07:10.456Z,0
2018-06-25T02:08:10.209Z,0
2018-06-25T02:09:10.231Z,0
2018-06-25T02:10:10.519Z,0
2018-06-25T02:11:10.263Z,0
2018-06-25T02:12:10.281Z,0
2018-06-25T02:13:10.565Z,0
2018-06-25T02:14:10.322Z,0
2018-06-25T02:15:10.074Z,0
2018-06-25T02:16:10.635Z,0
2018-06-25T02:17:10.384Z,0
2018-06-25T02:18:10.665Z,0
2018-06-25T02:19:10.423Z,0
2018-06-25T02:20:09.908Z,0
2018-06-25T02:21:10.462Z,0
2018-06-25T02:22:10.222Z,0
2018-06-25T02:23:10.763Z,0
2018-06-25T02:24:10.259Z,0
2018-06-25T02:25:10.807Z,0
2018-06-25T02:26:10.290Z,0
2018-06-25T02:27:10.370Z,0
2018-06-25T02:28:10.328Z,0
2018-06-25T02:29:10.877Z,0
2018-06-25T02:30:10.639Z,0
2018-06-25T02:31:10.655Z,0
2018-06-25T02:32:10.687Z,4
2018-06-25T02:33:10.832Z,4
2018-06-25T02:34:10.999Z,4
2018-06-25T02:35:11.031Z,4
2018-06-25T02:36:10.489Z,4
2018-06-25T02:37:11.042Z,4
2018-06-25T02:38:11.064Z,4
2018-06-25T02:39:11.088Z,4
2018-06-25T02:40:11.097Z,4
2018-06-25T02:41:10.847Z,4
2018-06-25T02:42:11.160Z,8
2018-06-25T02:43:10.895Z,4
2018-06-25T02:44:11.186Z,4
2018-06-25T02:45:10.668Z,8
2018-06-25T02:46:10.721Z,8
2018-06-25T02:47:11.241Z,8
2018-06-25T02:48:11.006Z,8
2018-06-25T02:49:11.274Z,8
2018-06-25T02:50:11.295Z,8
2018-06-25T02:51:11.046Z,8
2018-06-25T02:52:11.379Z,8
2018-06-25T02:53:11.366Z,8
2018-06-25T02:54:11.376Z,12
2018-06-25T02:55:11.395Z,12
2018-06-25T02:56:11.446Z,8
2018-06-25T02:57:11.427Z,8
2018-06-25T02:58:10.925Z,8
2018-06-25T02:59:11.600Z,8
2018-06-25T03:00:11.497Z,8
2018-06-25T03:01:11.252Z,12
2018-06-25T03:02:11.537Z,16
2018-06-25T03:03:11.286Z,20
2018-06-25T03:04:11.563Z,16
2018-06-25T03:05:11.600Z,20
2018-06-25T03:06:11.364Z,20
2018-06-25T03:07:11.623Z,24
2018-06-25T03:08:11.545Z,16
2018-06-25T03:09:11.390Z,20
2018-06-25T03:10:11.678Z,20
2018-06-25T03:11:11.438Z,20
2018-06-25T03:12:11.450Z,20
2018-06-25T03:13:11.206Z,24
2018-06-25T03:14:11.491Z,28
2018-06-25T03:15:11.511Z,32
2018-06-25T03:16:11.796Z,32
2018-06-25T03:17:11.830Z,32
2018-06-25T03:18:11.578Z,32
2018-06-25T03:19:11.861Z,28
2018-06-25T03:20:11.891Z,28
2018-06-25T03:21:11.637Z,24
2018-06-25T03:22:11.650Z,24
2018-06-25T03:23:11.397Z,28
2018-06-25T03:24:11.686Z,32
2018-06-25T03:25:11.709Z,44
2018-06-25T03:26:11.458Z,44
2018-06-25T03:27:12.009Z,48
2018-06-25T03:28:11.767Z,52
2018-06-25T03:29:12.053Z,56
2018-06-25T03:30:12.080Z,60
2018-06-25T03:31:12.097Z,60
2018-06-25T03:32:11.899Z,60
2018-06-25T03:33:11.591Z,68
2018-06-25T03:34:11.896Z,84
2018-06-25T03:35:11.630Z,88
2018-06-25T03:36:11.921Z,108
2018-06-25T03:37:12.205Z,112
2018-06-25T03:38:12.222Z,104
2018-06-25T03:39:12.270Z,116
2018-06-25T03:40:12.268Z,108
2018-06-25T03:41:12.289Z,140
2018-06-25T03:42:12.032Z,140
2018-06-25T03:43:12.094Z,132
2018-06-25T03:44:12.384Z,124
2018-06-25T03:45:12.365Z,128
2018-06-25T03:46:12.113Z,144
2018-06-25T03:47:12.397Z,152
2018-06-25T03:48:12.430Z,156
2018-06-25T03:49:12.172Z,152
2018-06-25T03:50:11.921Z,128
2018-06-25T03:51:12.213Z,140
2018-06-25T03:52:12.240Z,148
2018-06-25T03:53:12.261Z,140
2018-06-25T03:54:12.578Z,112
2018-06-25T03:55:12.554Z,120
2018-06-25T03:56:12.319Z,132
2018-06-25T03:57:12.594Z,128
2018-06-25T03:58:12.618Z,124
2018-06-25T03:59:12.630Z,128
2018-06-25T04:00:12.386Z,136
2018-06-25T04:01:12.642Z,124
2018-06-25T04:02:12.689Z,100
2018-06-25T04:03:12.715Z,104
2018-06-25T04:04:12.456Z,92
2018-06-25T04:05:12.752Z,92
2018-06-25T04:06:12.533Z,80
2018-06-25T04:07:12.520Z,76
2018-06-25T04:08:12.537Z,88
2018-06-25T04:09:12.556Z,96
2018-06-25T04:10:12.580Z,96
2018-06-25T04:11:12.870Z,116
2018-06-25T04:12:13.257Z,144
2018-06-25T04:13:12.637Z,208
2018-06-25T04:14:12.117Z,224
2018-06-25T04:15:12.939Z,264
2018-06-25T04:16:12.697Z,296
2018-06-25T04:17:12.709Z,324
2018-06-25T04:18:13.160Z,304
2018-06-25T04:19:13.016Z,336
2018-06-25T04:20:13.049Z,396
2018-06-25T04:21:12.810Z,348
2018-06-25T04:22:13.086Z,316
2018-06-25T04:23:12.831Z,292
2018-06-25T04:24:13.120Z,312
2018-06-25T04:25:13.130Z,384
2018-06-25T04:26:12.899Z,408
2018-06-25T04:27:12.907Z,448
2018-06-25T04:28:12.656Z,396
2018-06-25T04:29:13.237Z,392
2018-06-25T04:30:12.698Z,432
2018-06-25T04:31:12.714Z,456
2018-06-25T04:32:13.277Z,512
2018-06-25T04:33:12.770Z,484
2018-06-25T04:34:13.041Z,472
2018-06-25T04:35:13.329Z,468
2018-06-25T04:36:12.815Z,504
2018-06-25T04:37:13.370Z,456
2018-06-25T04:38:13.390Z,520
2018-06-25T04:39:13.406Z,468
2018-06-25T04:40:13.248Z,496
2018-06-25T04:41:12.909Z,548
2018-06-25T04:42:12.930Z,580
2018-06-25T04:43:13.218Z,648
2018-06-25T04:44:12.970Z,680
2018-06-25T04:45:13.534Z,668
2018-06-25T04:46:13.546Z,756
2018-06-25T04:47:13.579Z,804
2018-06-25T04:48:13.314Z,840
2018-06-25T04:49:13.069Z,796
2018-06-25T04:50:13.355Z,740
2018-06-25T04:51:13.385Z,696
2018-06-25T04:52:13.669Z,660
2018-06-25T04:53:13.679Z,668
2018-06-25T04:54:13.432Z,704
2018-06-25T04:55:13.712Z,744
2018-06-25T04:56:13.205Z,732
2018-06-25T04:57:13.226Z,780
2018-06-25T04:58:13.513Z,784
2018-06-25T04:59:13.802Z,804
2018-06-25T05:00:13.550Z,796
2018-06-25T05:01:13.766Z,756
2018-06-25T05:02:13.898Z,700
2018-06-25T05:03:13.880Z,672
2018-06-25T05:04:13.944Z,668
2018-06-25T05:05:13.377Z,660
2018-06-25T05:06:13.664Z,644
2018-06-25T05:07:13.688Z,632
2018-06-25T05:08:13.706Z,672
2018-06-25T05:09:13.738Z,700
2018-06-25T05:10:13.492Z,684
2018-06-25T05:11:14.261Z,640
2018-06-25T05:12:13.518Z,604
2018-06-25T05:13:14.068Z,576
2018-06-25T05:14:13.567Z,564
2018-06-25T05:15:13.575Z,560
2018-06-25T05:16:14.138Z,552
2018-06-25T05:17:14.164Z,540
2018-06-25T05:18:13.909Z,524
2018-06-25T05:19:14.190Z,504
2018-06-25T05:20:14.214Z,484
2018-06-25T05:21:13.696Z,492
2018-06-25T05:22:13.980Z,512
2018-06-25T05:23:14.265Z,540
2018-06-25T05:24:14.293Z,564
2018-06-25T05:25:14.306Z,600
2018-06-25T05:26:14.057Z,652
2018-06-25T05:27:13.813Z,684
2018-06-25T05:28:14.369Z,652
2018-06-25T05:29:14.606Z,608
2018-06-25T05:30:14.140Z,504
2018-06-25T05:31:14.431Z,460
2018-06-25T05:32:14.181Z,428
2018-06-25T05:33:14.195Z,496
2018-06-25T05:34:14.484Z,732
2018-06-25T05:35:14.504Z,748
2018-06-25T05:36:14.530Z,836
2018-06-25T05:37:14.545Z,836
2018-06-25T05:38:14.563Z,788
2018-06-25T05:39:14.581Z,848
2018-06-25T05:40:14.340Z,852
2018-06-25T05:41:14.627Z,864
2018-06-25T05:42:14.648Z,896
2018-06-25T05:43:14.396Z,944
2018-06-25T05:44:14.412Z,1072
2018-06-25T05:45:14.440Z,1060
2018-06-25T05:46:14.730Z,1044
2018-06-25T05:47:14.525Z,1060
2018-06-25T05:48:14.761Z,1112
2018-06-25T05:49:14.247Z,1092
2018-06-25T05:50:14.802Z,1064
2018-06-25T05:51:14.553Z,1120
2018-06-25T05:52:14.575Z,1164
2018-06-25T05:53:14.595Z,1128
2018-06-25T05:54:14.621Z,1124
2018-06-25T05:55:14.632Z,1168
2018-06-25T05:56:14.655Z,1212
2018-06-25T05:57:14.934Z,1196
2018-06-25T05:58:14.955Z,1112
2018-06-25T05:59:14.983Z,992
2018-06-25T06:00:15.001Z,948
2018-06-25T06:01:15.019Z,1160
2018-06-25T06:02:14.768Z,1252
2018-06-25T06:03:14.790Z,1272
2018-06-25T06:04:14.926Z,1180
2018-06-25T06:05:14.829Z,1180
2018-06-25T06:06:15.121Z,1280
2018-06-25T06:07:15.193Z,1400
2018-06-25T06:08:15.156Z,1444
2018-06-25T06:09:15.179Z,1436
2018-06-25T06:10:14.951Z,1444
2018-06-25T06:11:14.943Z,1488
2018-06-25T06:12:15.236Z,1492
2018-06-25T06:13:15.280Z,1448
2018-06-25T06:14:15.106Z,1400
2018-06-25T06:15:15.332Z,1400
2018-06-25T06:16:15.047Z,1400
2018-06-25T06:17:15.207Z,1348
2018-06-25T06:18:15.087Z,1396
2018-06-25T06:19:15.111Z,1360
2018-06-25T06:20:15.392Z,1348
2018-06-25T06:21:14.895Z,1404
2018-06-25T06:22:15.169Z,1468
2018-06-25T06:23:14.922Z,1540
2018-06-25T06:24:15.482Z,1592
2018-06-25T06:25:15.237Z,1636
2018-06-25T06:26:15.290Z,1636
2018-06-25T06:27:15.269Z,1588
2018-06-25T06:28:15.317Z,1548
2018-06-25T06:29:15.045Z,1548
2018-06-25T06:30:15.345Z,1568
2018-06-25T06:31:15.356Z,1672
2018-06-25T06:32:15.545Z,1748
2018-06-25T06:33:15.129Z,1796
2018-06-25T06:34:15.407Z,1800
2018-06-25T06:35:15.164Z,1792
2018-06-25T06:36:15.453Z,1784
2018-06-25T06:37:15.468Z,1788
2018-06-25T06:38:15.492Z,1796
2018-06-25T06:39:15.535Z,1788
2018-06-25T06:40:16.063Z,1776
2018-06-25T06:41:15.553Z,1816
2018-06-25T06:42:15.881Z,1888
2018-06-25T06:43:15.328Z,1936
2018-06-25T06:44:15.343Z,1924
2018-06-25T06:45:15.415Z,1872
2018-06-25T06:46:15.658Z,1856
2018-06-25T06:47:15.941Z,1832
2018-06-25T06:48:15.697Z,1828
2018-06-25T06:49:15.452Z,1840
2018-06-25T06:50:15.738Z,1872
2018-06-25T06:51:15.754Z,1880
2018-06-25T06:52:15.775Z,1852
2018-06-25T06:53:16.121Z,1824
2018-06-25T06:54:15.546Z,1996
2018-06-25T06:55:16.106Z,2016
2018-06-25T06:56:15.857Z,2004
2018-06-25T06:57:15.342Z,2032
2018-06-25T06:58:15.904Z,2036
2018-06-25T06:59:15.917Z,2004
2018-06-25T07:00:15.942Z,1936
2018-06-25T07:01:16.235Z,1892
2018-06-25T07:02:16.249Z,1796
2018-06-25T07:03:16.054Z,1668
2018-06-25T07:04:16.023Z,1740
2018-06-25T07:05:15.771Z,1900
2018-06-25T07:06:16.331Z,2000
2018-06-25T07:07:15.549Z,2124
2018-06-25T07:08:16.106Z,2148
2018-06-25T07:09:16.457Z,2136
2018-06-25T07:10:16.533Z,2104
2018-06-25T07:11:16.445Z,2056
2018-06-25T07:12:16.454Z,1892
2018-06-25T07:13:16.211Z,1652
2018-06-25T07:14:16.334Z,1300
2018-06-25T07:15:16.515Z,952
2018-06-25T07:16:16.272Z,712
2018-06-25T07:17:16.296Z,692
2018-06-25T07:18:16.581Z,772
2018-06-25T07:19:16.337Z,992
2018-06-25T07:20:16.360Z,924
2018-06-25T07:21:16.383Z,864
2018-06-25T07:22:16.664Z,756
2018-06-25T07:23:16.422Z,644
2018-06-25T07:24:16.175Z,584
2018-06-25T07:25:16.734Z,596
2018-06-25T07:26:16.747Z,664
2018-06-25T07:27:16.779Z,684
2018-06-25T07:28:16.790Z,720
2018-06-25T07:29:17.137Z,748
2018-06-25T07:30:16.875Z,736
2018-06-25T07:31:16.586Z,792
2018-06-25T07:32:16.871Z,864
2018-06-25T07:33:16.628Z,1016
2018-06-25T07:34:16.910Z,1352
2018-06-25T07:35:16.411Z,1764
2018-06-25T07:36:16.955Z,2136
2018-06-25T07:37:16.982Z,2832
2018-06-25T07:38:17.008Z,2940
2018-06-25T07:39:16.490Z,2268
2018-06-25T07:40:17.047Z,1984
2018-06-25T07:41:17.067Z,2052
2018-06-25T07:42:16.555Z,2264
2018-06-25T07:43:16.855Z,2544
2018-06-25T07:44:16.856Z,2624
2018-06-25T07:45:17.145Z,2412
2018-06-25T07:46:16.899Z,2284
2018-06-25T07:47:17.846Z,2588
2018-06-25T07:48:16.941Z,2416
2018-06-25T07:49:17.237Z,2460
2018-06-25T07:50:16.985Z,2468
2018-06-25T07:51:17.274Z,2348
2018-06-25T07:52:17.303Z,2128
2018-06-25T07:53:16.826Z,1808
2018-06-25T07:54:17.079Z,1824
2018-06-25T07:55:17.086Z,2016
2018-06-25T07:56:17.122Z,2064
2018-06-25T07:57:17.140Z,1972
2018-06-25T07:58:17.152Z,1948
2018-06-25T07:59:17.448Z,2012
2018-06-25T08:00:16.950Z,2108
2018-06-25T08:01:17.488Z,2248
2018-06-25T08:02:17.238Z,2384
2018-06-25T08:03:17.266Z,2496
2018-06-25T08:04:17.550Z,2572
2018-06-25T08:05:17.577Z,2572
2018-06-25T08:06:17.071Z,2580
2018-06-25T08:07:17.624Z,2560
2018-06-25T08:08:17.381Z,2336
2018-06-25T08:09:17.669Z,2360
2018-06-25T08:10:17.635Z,2444
2018-06-25T08:11:17.439Z,2404
2018-06-25T08:12:17.769Z,2356
2018-06-25T08:13:17.766Z,2204
2018-06-25T08:14:17.773Z,2192
2018-06-25T08:15:17.787Z,2116
2018-06-25T08:16:17.432Z,2124
2018-06-25T08:17:17.564Z,2084
2018-06-25T08:18:17.862Z,1940
2018-06-25T08:19:17.880Z,1696
2018-06-25T08:20:17.719Z,1488
2018-06-25T08:21:17.924Z,1344
2018-06-25T08:22:17.943Z,1296
2018-06-25T08:23:17.705Z,1172
2018-06-25T08:24:17.987Z,1040
2018-06-25T08:25:18.009Z,1240
2018-06-25T08:26:17.758Z,1468
2018-06-25T08:27:18.052Z,1772
2018-06-25T08:28:17.267Z,2160
2018-06-25T08:29:17.825Z,2648
2018-06-25T08:30:18.519Z,3076
2018-06-25T08:31:17.603Z,3440
2018-06-25T08:32:17.911Z,3304
2018-06-25T08:33:17.377Z,3004
2018-06-25T08:34:18.697Z,2668
2018-06-25T08:35:17.719Z,2468
2018-06-25T08:36:18.249Z,2088
2018-06-25T08:37:17.739Z,1792
2018-06-25T08:38:18.286Z,1432
2018-06-25T08:39:18.044Z,1180
2018-06-25T08:40:18.528Z,1240
2018-06-25T08:41:18.559Z,1328
2018-06-25T08:42:18.110Z,1412
2018-06-25T08:43:18.160Z,1476
2018-06-25T08:44:18.421Z,1536
2018-06-25T08:45:18.471Z,1664
2018-06-25T08:46:18.201Z,1760
2018-06-25T08:47:18.493Z,1808
2018-06-25T08:48:18.517Z,1856
2018-06-25T08:49:17.996Z,1816
2018-06-25T08:50:18.295Z,1728
2018-06-25T08:51:18.583Z,1652
2018-06-25T08:52:18.068Z,1620
2018-06-25T08:53:18.371Z,1576
2018-06-25T08:54:18.665Z,1528
2018-06-25T08:55:18.411Z,1508
2018-06-25T08:56:18.220Z,1596
2018-06-25T08:57:18.183Z,1752
2018-06-25T08:58:18.752Z,1680
2018-06-25T08:59:18.497Z,1760
2018-06-25T09:00:18.782Z,1716
2018-06-25T09:01:18.557Z,1604
2018-06-25T09:02:18.556Z,1620
2018-06-25T09:03:18.932Z,1752
2018-06-25T09:04:18.685Z,1944
2018-06-25T09:05:18.788Z,2072
2018-06-25T09:06:18.925Z,2088
2018-06-25T09:07:18.674Z,1692
2018-06-25T09:08:18.963Z,1476
2018-06-25T09:09:18.988Z,1492
2018-06-25T09:10:19.058Z,1584
2018-06-25T09:11:18.763Z,1724
2018-06-25T09:12:19.059Z,1700
2018-06-25T09:13:18.809Z,1712
2018-06-25T09:14:19.095Z,1904
2018-06-25T09:15:19.631Z,2300
2018-06-25T09:16:19.147Z,2404
2018-06-25T09:17:19.165Z,2056
2018-06-25T09:18:18.918Z,1864
2018-06-25T09:19:19.217Z,1896
2018-06-25T09:20:18.974Z,1696
2018-06-25T09:21:18.997Z,1628
2018-06-25T09:22:19.496Z,1544
2018-06-25T09:23:19.310Z,1464
2018-06-25T09:24:19.338Z,1404
2018-06-25T09:25:19.414Z,1364
2018-06-25T09:26:19.376Z,1336
2018-06-25T09:27:19.134Z,1336
2018-06-25T09:28:19.159Z,1348
2018-06-25T09:29:19.181Z,1416
2018-06-25T09:30:19.467Z,1500
2018-06-25T09:31:19.488Z,1628
2018-06-25T09:32:19.513Z,1976
2018-06-25T09:33:19.280Z,2592
2018-06-25T09:34:19.568Z,2848
2018-06-25T09:35:19.416Z,2720
2018-06-25T09:36:19.621Z,2796
2018-06-25T09:37:19.639Z,2772
2018-06-25T09:38:19.389Z,2572
2018-06-25T09:39:19.686Z,2356
2018-06-25T09:40:19.698Z,2348
2018-06-25T09:41:20.354Z,2088
2018-06-25T09:42:19.211Z,2048
2018-06-25T09:43:19.515Z,2380
2018-06-25T09:44:19.796Z,2716
2018-06-25T09:45:19.829Z,2668
2018-06-25T09:46:19.838Z,2200
2018-06-25T09:47:19.332Z,2268
2018-06-25T09:48:19.682Z,2088
2018-06-25T09:49:19.911Z,2432
2018-06-25T09:50:19.938Z,2816
2018-06-25T09:51:19.969Z,2632
2018-06-25T09:52:19.709Z,2532
2018-06-25T09:53:19.737Z,2560
2018-06-25T09:54:20.030Z,2328
2018-06-25T09:55:19.953Z,2248
2018-06-25T09:56:20.080Z,2008
2018-06-25T09:57:20.098Z,1680
2018-06-25T09:58:20.123Z,1380
2018-06-25T09:59:19.908Z,1004
2018-06-25T10:00:19.905Z,1064
2018-06-25T10:01:19.659Z,1408
2018-06-25T10:02:20.231Z,1832
2018-06-25T10:03:20.244Z,1960
2018-06-25T10:04:20.003Z,2168
2018-06-25T10:05:20.299Z,2432
2018-06-25T10:06:19.783Z,2752
2018-06-25T10:07:20.368Z,2712
2018-06-25T10:08:20.097Z,3192
2018-06-25T10:09:19.852Z,2460
2018-06-25T10:10:19.882Z,2160
2018-06-25T10:11:20.439Z,1952
2018-06-25T10:12:20.194Z,2492
2018-06-25T10:13:19.951Z,2196
2018-06-25T10:14:20.241Z,2980
2018-06-25T10:15:20.537Z,2956
2018-06-25T10:16:20.557Z,2484
2018-06-25T10:17:20.315Z,2156
2018-06-25T10:18:20.075Z,2036
2018-06-25T10:19:20.365Z,1716
2018-06-25T10:20:20.390Z,1320
2018-06-25T10:21:20.898Z,1552
2018-06-25T10:22:20.436Z,2592
2018-06-25T10:23:20.465Z,2476
2018-06-25T10:24:20.488Z,2352
2018-06-25T10:25:20.241Z,2412
2018-06-25T10:26:20.813Z,2816
2018-06-25T10:27:20.827Z,3324
2018-06-25T10:28:20.858Z,3928
2018-06-25T10:29:20.611Z,4312
2018-06-25T10:30:20.898Z,3940
2018-06-25T10:31:20.931Z,3728
2018-06-25T10:32:20.689Z,3368
2018-06-25T10:33:20.976Z,4112
2018-06-25T10:34:20.728Z,4524
2018-06-25T10:35:21.035Z,4316
2018-06-25T10:36:21.047Z,3696
2018-06-25T10:37:20.812Z,3784
2018-06-25T10:38:21.107Z,3640
2018-06-25T10:39:21.122Z,4108
2018-06-25T10:40:21.149Z,3336
2018-06-25T10:41:21.182Z,3448
2018-06-25T10:42:21.203Z,3852
2018-06-25T10:43:21.237Z,4696
2018-06-25T10:44:21.261Z,4260
2018-06-25T10:45:21.010Z,4572
2018-06-25T10:46:20.767Z,4604
2018-06-25T10:47:21.333Z,4208
2018-06-25T10:48:20.819Z,3964
2018-06-25T10:49:21.385Z,3724
2018-06-25T10:50:21.139Z,3668
2018-06-25T10:51:21.222Z,3624
2018-06-25T10:52:21.459Z,3632
2018-06-25T10:53:20.951Z,3448
2018-06-25T10:54:21.242Z,3164
2018-06-25T10:55:21.534Z,2796
2018-06-25T10:56:21.563Z,2612
2018-06-25T10:57:21.599Z,2536
2018-06-25T10:58:21.612Z,2532
2018-06-25T10:59:21.527Z,2600
2018-06-25T11:00:22.433Z,2624
2018-06-25T11:01:21.831Z,2504
2018-06-25T11:02:21.724Z,2484
2018-06-25T11:03:21.744Z,2504
2018-06-25T11:04:21.516Z,2456
2018-06-25T11:05:21.529Z,2528
2018-06-25T11:06:21.818Z,2640
2018-06-25T11:07:22.562Z,2764
2018-06-25T11:08:21.612Z,2832
2018-06-25T11:09:21.906Z,2900
2018-06-25T11:10:21.925Z,3044
2018-06-25T11:11:21.723Z,3204
2018-06-25T11:12:21.718Z,3364
2018-06-25T11:13:21.745Z,3556
2018-06-25T11:14:22.037Z,2404
2018-06-25T11:15:22.071Z,1944
2018-06-25T11:16:22.095Z,1608
2018-06-25T11:17:21.851Z,1548
2018-06-25T11:18:21.877Z,1556
2018-06-25T11:19:21.909Z,1644
2018-06-25T11:20:21.928Z,1688
2018-06-25T11:21:21.958Z,2004
2018-06-25T11:22:21.986Z,2284
2018-06-25T11:23:22.013Z,2728
2018-06-25T11:24:22.303Z,3480
2018-06-25T11:25:22.071Z,5028
2018-06-25T11:26:22.088Z,5560
2018-06-25T11:27:22.801Z,5728
2018-06-25T11:28:22.149Z,5624
2018-06-25T11:29:22.179Z,5512
2018-06-25T11:30:21.990Z,4732
2018-06-25T11:31:22.223Z,5216
2018-06-25T11:32:22.253Z,4660
2018-06-25T11:33:22.016Z,3944
2018-06-25T11:34:22.580Z,3556
2018-06-25T11:35:22.337Z,3596
2018-06-25T11:36:22.369Z,3576
2018-06-25T11:37:22.128Z,3740
2018-06-25T11:38:22.167Z,4620
2018-06-25T11:39:22.450Z,5836
2018-06-25T11:40:22.490Z,5620
2018-06-25T11:41:22.509Z,5588
2018-06-25T11:42:22.262Z,4764
2018-06-25T11:43:22.824Z,4756
2018-06-25T11:44:22.850Z,4064
2018-06-25T11:45:22.351Z,3448
2018-06-25T11:46:22.910Z,3696
2018-06-25T11:47:22.939Z,3472
2018-06-25T11:48:22.430Z,3252
2018-06-25T11:49:22.992Z,3636
2018-06-25T11:50:22.757Z,3696
2018-06-25T11:51:23.095Z,3928
2018-06-25T11:52:23.088Z,4184
2018-06-25T11:53:23.125Z,3892
2018-06-25T11:54:22.868Z,3940
2018-06-25T11:55:23.172Z,4208
2018-06-25T11:56:23.198Z,3748
2018-06-25T11:57:22.697Z,5700
2018-06-25T11:58:23.257Z,5516
2018-06-25T11:59:23.010Z,3288
2018-06-25T12:00:23.313Z,3256
2018-06-25T12:01:23.334Z,2764
2018-06-25T12:02:23.170Z,3012
2018-06-25T12:03:24.198Z,3624
2018-06-25T12:04:23.159Z,3728
2018-06-25T12:05:23.463Z,5484
2018-06-25T12:06:23.479Z,5552
2018-06-25T12:07:23.270Z,5392
2018-06-25T12:08:23.005Z,5124
2018-06-25T12:09:23.300Z,5164
2018-06-25T12:10:22.795Z,5428
2018-06-25T12:11:23.620Z,5840
2018-06-25T12:12:23.862Z,5852
2018-06-25T12:13:23.424Z,5036
2018-06-25T12:14:23.579Z,5924
2018-06-25T12:15:23.740Z,5224
2018-06-25T12:16:23.777Z,4740
2018-06-25T12:17:23.873Z,4080
2018-06-25T12:18:23.837Z,3036
2018-06-25T12:19:23.858Z,3212
2018-06-25T12:20:23.903Z,3156
2018-06-25T12:21:23.925Z,4072
2018-06-25T12:22:23.944Z,6384
2018-06-25T12:23:23.974Z,6836
2018-06-25T12:24:24.012Z,7020
2018-06-25T12:25:23.761Z,6776
2018-06-25T12:26:24.129Z,6456
2018-06-25T12:27:24.104Z,6232
2018-06-25T12:28:23.895Z,6280
2018-06-25T12:29:24.155Z,6796
2018-06-25T12:30:23.921Z,6616
2018-06-25T12:31:23.949Z,4616
2018-06-25T12:32:24.235Z,6244
2018-06-25T12:33:24.003Z,4464
2018-06-25T12:34:24.295Z,4540
2018-06-25T12:35:24.325Z,6892
2018-06-25T12:36:23.826Z,4376
2018-06-25T12:37:24.389Z,6856
2018-06-25T12:38:23.883Z,6736
2018-06-25T12:39:24.181Z,6532
2018-06-25T12:40:24.488Z,7244
2018-06-25T12:41:24.331Z,7720
2018-06-25T12:42:24.278Z,7532
2018-06-25T12:43:24.309Z,5768
2018-06-25T12:44:24.640Z,7544
2018-06-25T12:45:24.634Z,7408
2018-06-25T12:46:24.130Z,4600
2018-06-25T12:47:24.433Z,4204
2018-06-25T12:48:24.847Z,4488
2018-06-25T12:49:24.489Z,4956
2018-06-25T12:50:24.523Z,7428
2018-06-25T12:51:24.549Z,4252
2018-06-25T12:52:24.577Z,4616
2018-06-25T12:53:24.080Z,5552
2018-06-25T12:54:24.641Z,6448
2018-06-25T12:55:24.413Z,7712
2018-06-25T12:56:24.711Z,6596
2018-06-25T12:57:25.004Z,6224
2018-06-25T12:58:25.038Z,6816
2018-06-25T12:59:24.805Z,8560
2018-06-25T13:00:24.565Z,6304
2018-06-25T13:01:25.210Z,5248
2018-06-25T13:02:24.991Z,5476
2018-06-25T13:03:24.391Z,6076
2018-06-25T13:04:24.419Z,7384
2018-06-25T13:05:25.256Z,5992
2018-06-25T13:06:25.283Z,5944
2018-06-25T13:07:25.308Z,4120
2018-06-25T13:08:25.360Z,4164
2018-06-25T13:09:24.598Z,5140
2018-06-25T13:10:25.151Z,4752
2018-06-25T13:11:25.173Z,4600
2018-06-25T13:12:25.473Z,5080
2018-06-25T13:13:25.536Z,4144
2018-06-25T13:14:25.590Z,3812
2018-06-25T13:15:25.313Z,4956
2018-06-25T13:16:25.332Z,5108
2018-06-25T13:17:25.645Z,5584
2018-06-25T13:18:25.633Z,9920
2018-06-25T13:19:25.720Z,8380
2018-06-25T13:20:25.188Z,7892
2018-06-25T13:21:25.759Z,7876
2018-06-25T13:22:25.530Z,6604
2018-06-25T13:23:25.818Z,7612
2018-06-25T13:24:25.848Z,5200
2018-06-25T13:25:25.689Z,5552
2018-06-25T13:26:25.653Z,7980
2018-06-25T13:27:25.944Z,6008
2018-06-25T13:28:25.979Z,6772
2018-06-25T13:29:25.765Z,6696
2018-06-25T13:30:25.563Z,6132
2018-06-25T13:31:26.459Z,6024
2018-06-25T13:32:26.150Z,6768
2018-06-25T13:33:26.139Z,6816
2018-06-25T13:34:26.172Z,6272
2018-06-25T13:35:26.199Z,4664
2018-06-25T13:36:25.968Z,5304
2018-06-25T13:37:25.461Z,7088
2018-06-25T13:38:26.151Z,7584
2018-06-25T13:39:26.330Z,4756
2018-06-25T13:40:26.096Z,3788
2018-06-25T13:41:26.482Z,3840
2018-06-25T13:42:26.432Z,4920
2018-06-25T13:43:26.190Z,6532
2018-06-25T13:44:26.646Z,6024